GVACGVSV

Guest
Details From GVAC - Sal Amilcar Cabral Intl
To GVSV - Sao Pedro
Flight Number -
Tags generated
Created
Modified
Stats Distance 149 nm / 276 km
Max Altitude 14,200 ft / 4,328 m
Waypoints 4
Social Downloads 2
Likes 0
Share VATSIM

Download

Looking for another format? Having issues loading an existing format? Contact us
Advertisement - Login to hide

Notes

Basic altitude profile: - Ascent Rate: 2500ft/min - Ascent Speed: 250kts - Cruise Altitude: 35000ft - Cruise Speed: 420kts - Descent Rate: 1500ft/min - Descent Speed: 250kts Options: - Use NATs: yes - Use PACOTS: yes - Use low airways: yes - Use high airways: yes

Route

GVAC CVS R976 VOTOL GVSV

ID Type Via Altitude Latitude Longitude Leg Dist Tot Dist Heading (true) Name
O GVAC APT - 0 ft / 0 m 16.73821˚ -22.95050˚ - 0 nm - Sal Amilcar Cabral Intl
CVS VOR - 0 ft / 0 m 16.73677˚ -22.95105˚ 0 nm 0 nm 200° / 200° SAL VOR-DME
VOTOL FIX R976 (AWY-LO) 14,200 ft / 4,328 m 17.51000˚ -24.03472˚ 77 nm 77 nm 307° / 307° -
O GVSV APT - 0 ft / 0 m 16.83370˚ -25.05466˚ 71 nm 148 nm 235° / 235° Sao Pedro

Altitude Profile

Advertisement - Login to hide

GVAC

Details ICAO GVAC (SID)
Name Sal Amilcar Cabral Intl
Region Cape Verde
Timezone Atlantic/Cape_Verde (UTC-1.0)
Stats Elevation 177 ft / 54 m (AMSL)
Location 16.738208° -22.950500°
Runways 2
Magnetic Variation 9.240° W

METAR

GVAC 161600Z 08020KT 8000 FEW014 SCT090 27/17 Q1016 NOSIG

Decode

TAF

TAF GVAC 161100Z 1612/1718 07016KT 8000 FEW014 TEMPO 1612/1618 07016G26KT

Decode

Departure Runways

ID Width Length Bearing (true) Bearing (mag) Surface Threshold Offset Overrun Length
01 148 ft / 45 m 10,826 ft / 3,300 m 359.69° 8.93° Asphalt 885 ft / 270 m 0 ft / 0 m
07 148 ft / 45 m 4,892 ft / 1,491 m 57.69° 66.93° Asphalt 200 ft / 61 m 0 ft / 0 m
19 148 ft / 45 m 10,826 ft / 3,300 m 179.69° 188.93° Asphalt 800 ft / 244 m 0 ft / 0 m
25 148 ft / 45 m 4,892 ft / 1,491 m 237.69° 246.93° Asphalt 200 ft / 61 m 0 ft / 0 m

GVSV

Details ICAO GVSV (VXE)
Name Sao Pedro
Region Cape Verde
Timezone Atlantic/Cape_Verde (UTC-1.0)
Stats Elevation 66 ft / 20 m (AMSL)
Location 16.833703° -25.054661°
Runways 1
Magnetic Variation 10.109° W

METAR

GVSV 161600Z 07020KT 9000 SCT017 SCT100 BKN200 26/16 Q1017 NOSIG

Decode

TAF

TAF GVSV 161100Z 1612/1718 06018KT 8000 FEW018 TEMPO 1612/1618 07018G28KT

Decode

Destination Runways

ID Width Length Bearing (true) Bearing (mag) Surface Threshold Offset Overrun Length
07 148 ft / 45 m 6,493 ft / 1,979 m 53.56° 63.67° Asphalt 1,066 ft / 325 m 0 ft / 0 m
25 148 ft / 45 m 6,493 ft / 1,979 m 233.57° 243.68° Asphalt 1,113 ft / 339 m 0 ft / 0 m

Popular Alternatives